createdAt,value
2024-01-01T00:01:47.525Z,92.81
2024-01-01T00:04:14.377Z,93.00
2024-01-01T00:06:41.128Z,92.57
2024-01-01T00:09:08.448Z,93.18
2024-01-01T00:11:37.360Z,93.09
2024-01-01T00:14:04.727Z,93.53
2024-01-01T00:16:33.115Z,93.52
2024-01-01T00:19:00.280Z,94.16
2024-01-01T00:21:28.278Z,94.32
2024-01-01T00:23:55.141Z,93.95
2024-01-01T00:26:22.131Z,93.90
2024-01-01T00:28:56.844Z,93.67
2024-01-01T00:31:23.874Z,93.70
2024-01-01T00:33:53.531Z,94.22
2024-01-01T00:36:20.287Z,94.07
2024-01-01T00:38:47.072Z,94.18
2024-01-01T00:41:17.753Z,94.38
2024-01-01T00:43:44.881Z,94.30
2024-01-01T00:46:12.097Z,94.86
2024-01-01T00:48:39.502Z,94.64
2024-01-01T00:51:06.303Z,94.66
2024-01-01T00:53:33.427Z,95.01
2024-01-01T00:56:00.221Z,94.81
2024-01-01T00:58:27.049Z,94.54
2024-01-01T01:00:54.005Z,94.73
2024-01-01T01:03:20.806Z,94.19
2024-01-01T01:05:49.988Z,94.29
2024-01-01T01:08:17.568Z,94.39
2024-01-01T01:10:44.365Z,93.94
2024-01-01T01:13:11.107Z,93.72
2024-01-01T01:15:37.883Z,93.68
2024-01-01T01:18:04.953Z,93.72
2024-01-01T01:20:31.879Z,93.54
2024-01-01T01:22:58.656Z,93.73
2024-01-01T01:25:25.776Z,93.32
2024-01-01T01:27:52.474Z,93.68
2024-01-01T01:30:19.511Z,93.74
2024-01-01T01:32:46.806Z,93.73
2024-01-01T01:35:13.619Z,93.77
2024-01-01T01:37:40.427Z,93.45
2024-01-01T01:40:07.894Z,93.23
2024-01-01T01:42:34.829Z,93.53
2024-01-01T01:45:01.549Z,93.22
2024-01-01T01:47:29.503Z,93.54
2024-01-01T01:49:56.478Z,92.96
2024-01-01T01:52:24.432Z,92.67
2024-01-01T01:54:52.776Z,92.54
2024-01-01T01:57:19.777Z,92.59
2024-01-01T01:59:46.751Z,92.63
2024-01-01T02:02:13.723Z,92.41
2024-01-01T02:04:40.667Z,91.98
2024-01-01T02:07:07.790Z,91.60
2024-01-01T02:09:34.632Z,91.64
2024-01-01T02:12:01.460Z,92.02
2024-01-01T02:14:28.310Z,91.93
2024-01-01T02:16:55.087Z,91.93
2024-01-01T02:19:24.127Z,92.10
2024-01-01T02:21:52.021Z,92.38
2024-01-01T02:24:19.029Z,92.21
2024-01-01T02:26:46.782Z,92.29
2024-01-01T02:29:13.891Z,91.88
2024-01-01T02:31:40.764Z,92.04
2024-01-01T02:34:07.533Z,91.86
2024-01-01T02:36:40.649Z,92.10
2024-01-01T02:39:08.304Z,92.45
2024-01-01T02:41:36.317Z,92.24
2024-01-01T02:44:03.989Z,92.53
2024-01-01T02:46:31.124Z,92.46
2024-01-01T02:48:58.006Z,92.31
2024-01-01T02:51:24.987Z,92.15
2024-01-01T02:53:52.220Z,92.31
2024-01-01T02:56:25.688Z,92.37
2024-01-01T02:58:53.287Z,92.55
2024-01-01T03:01:20.316Z,92.20
2024-01-01T03:03:47.057Z,92.43
2024-01-01T03:06:13.956Z,92.46
2024-01-01T03:08:40.700Z,92.06
2024-01-01T03:11:08.253Z,92.67
2024-01-01T03:13:35.422Z,92.48
2024-01-01T03:16:02.644Z,92.78
2024-01-01T03:18:29.715Z,93.04
2024-01-01T03:20:56.601Z,93.08
2024-01-01T03:23:23.412Z,93.81
2024-01-01T03:25:50.401Z,93.89
2024-01-01T03:28:17.936Z,93.43
2024-01-01T03:30:44.847Z,93.78
2024-01-01T03:33:11.808Z,94.09
2024-01-01T03:35:38.666Z,93.81
2024-01-01T03:38:05.714Z,94.22
2024-01-01T03:40:33.003Z,94.12
2024-01-01T03:43:01.439Z,94.33
2024-01-01T03:45:28.148Z,94.45
2024-01-01T03:47:55.038Z,95.42
2024-01-01T03:50:22.092Z,95.47
2024-01-01T03:52:48.971Z,95.34
2024-01-01T03:55:17.398Z,95.14
2024-01-01T03:57:44.258Z,94.68
2024-01-01T04:00:13.661Z,94.68
2024-01-01T04:02:42.041Z,94.59
2024-01-01T04:05:10.101Z,95.13
2024-01-01T04:07:37.865Z,95.09
2024-01-01T04:10:06.492Z,95.32
2024-01-01T04:12:33.315Z,95.13
2024-01-01T04:15:00.346Z,95.72
2024-01-01T04:17:27.169Z,96.15
2024-01-01T04:19:55.237Z,96.16
2024-01-01T04:22:25.958Z,96.07
2024-01-01T04:24:53.441Z,96.50
2024-01-01T04:27:20.676Z,96.65
2024-01-01T04:29:47.599Z,96.64
2024-01-01T04:32:14.514Z,97.81
2024-01-01T04:34:41.467Z,98.35
2024-01-01T04:37:10.526Z,98.20
2024-01-01T04:39:37.521Z,97.91
2024-01-01T04:42:04.753Z,98.26
2024-01-01T04:44:31.619Z,98.26
2024-01-01T04:46:58.450Z,98.42
2024-01-01T04:49:25.632Z,98.64
2024-01-01T04:51:52.338Z,98.99
2024-01-01T04:54:19.713Z,99.27
2024-01-01T04:56:46.450Z,99.52
2024-01-01T04:59:13.325Z,99.05
2024-01-01T05:01:40.240Z,99.15
2024-01-01T05:04:07.029Z,99.86
2024-01-01T05:06:33.742Z,99.79
2024-01-01T05:09:00.455Z,99.25
2024-01-01T05:11:27.202Z,99.18
2024-01-01T05:13:53.975Z,98.94
2024-01-01T05:16:20.741Z,99.27
2024-01-01T05:18:47.580Z,98.92
2024-01-01T05:21:14.335Z,98.73
2024-01-01T05:23:41.272Z,98.56
2024-01-01T05:26:08.363Z,98.88
2024-01-01T05:28:35.249Z,98.36
2024-01-01T05:31:02.040Z,98.14
2024-01-01T05:33:29.044Z,97.92
2024-01-01T05:35:55.828Z,98.12
2024-01-01T05:38:22.656Z,98.28
2024-01-01T05:40:49.514Z,98.34
2024-01-01T05:43:16.248Z,98.86
2024-01-01T05:45:42.987Z,98.73
2024-01-01T05:48:19.060Z,98.49
2024-01-01T05:50:52.787Z,98.85
2024-01-01T05:53:19.971Z,98.60
2024-01-01T05:55:46.758Z,98.95
2024-01-01T05:58:13.637Z,98.67
2024-01-01T06:00:41.691Z,98.29
2024-01-01T06:03:08.798Z,98.54
2024-01-01T06:05:36.882Z,98.32
2024-01-01T06:08:07.284Z,98.86
2024-01-01T06:10:35.858Z,99.61
2024-01-01T06:13:03.993Z,98.96
2024-01-01T06:15:30.852Z,98.63
2024-01-01T06:17:57.735Z,98.44
2024-01-01T06:20:24.672Z,98.30
2024-01-01T06:22:51.766Z,97.53
2024-01-01T06:25:19.582Z,97.30
2024-01-01T06:27:46.368Z,97.41
2024-01-01T06:30:13.135Z,97.50
2024-01-01T06:32:40.001Z,97.69
2024-01-01T06:35:06.897Z,97.74
2024-01-01T06:37:33.642Z,97.09
2024-01-01T06:40:00.788Z,97.00
2024-01-01T06:42:27.488Z,96.94
2024-01-01T06:44:57.562Z,97.58
2024-01-01T06:47:25.056Z,97.63
2024-01-01T06:49:52.254Z,97.40
2024-01-01T06:52:19.420Z,96.91
2024-01-01T06:54:46.115Z,96.74
2024-01-01T06:57:12.810Z,96.43
2024-01-01T06:59:39.604Z,96.14
2024-01-01T07:02:07.757Z,95.76
2024-01-01T07:04:34.789Z,95.98
2024-01-01T07:07:02.185Z,96.02
2024-01-01T07:09:28.874Z,95.92
2024-01-01T07:11:58.313Z,95.50
2024-01-01T07:14:25.544Z,95.20
2024-01-01T07:16:54.413Z,94.99
2024-01-01T07:19:21.260Z,94.61
2024-01-01T07:21:48.418Z,94.51
2024-01-01T07:24:15.834Z,94.24
2024-01-01T07:26:42.546Z,93.96
2024-01-01T07:29:09.353Z,93.83
2024-01-01T07:31:36.698Z,93.52
2024-01-01T07:34:04.442Z,93.80
2024-01-01T07:36:31.720Z,93.36
2024-01-01T07:38:58.601Z,93.46
2024-01-01T07:41:25.674Z,93.09
2024-01-01T07:43:52.615Z,93.40
2024-01-01T07:46:20.038Z,93.44
2024-01-01T07:48:47.316Z,93.28
2024-01-01T07:51:14.588Z,93.27
2024-01-01T07:53:43.264Z,93.04
2024-01-01T07:56:10.164Z,93.29
2024-01-01T07:58:36.921Z,92.84
2024-01-01T08:01:03.738Z,93.01
2024-01-01T08:03:30.519Z,93.27
2024-01-01T08:05:57.336Z,93.38
2024-01-01T08:08:24.123Z,93.12
2024-01-01T08:10:50.983Z,92.91
2024-01-01T08:13:17.711Z,92.77
2024-01-01T08:15:44.413Z,92.56
2024-01-01T08:18:11.519Z,92.33
2024-01-01T08:20:38.614Z,92.17
2024-01-01T08:23:05.480Z,91.68
2024-01-01T08:25:32.318Z,91.60
2024-01-01T08:27:59.591Z,91.64
2024-01-01T08:30:26.350Z,91.65
2024-01-01T08:32:53.179Z,91.05
2024-01-01T08:35:20.160Z,90.63
2024-01-01T08:37:49.055Z,90.37
2024-01-01T08:40:15.941Z,90.35
2024-01-01T08:42:42.753Z,89.92
2024-01-01T08:45:10.577Z,88.73
2024-01-01T08:47:39.798Z,89.18
2024-01-01T08:50:08.648Z,88.63
2024-01-01T08:52:35.978Z,88.05
2024-01-01T08:55:03.132Z,87.59
2024-01-01T08:57:29.855Z,87.54
2024-01-01T08:59:56.571Z,86.88
2024-01-01T09:02:23.330Z,86.55
2024-01-01T09:04:50.111Z,86.33
2024-01-01T09:07:17.278Z,86.92
2024-01-01T09:09:44.537Z,86.61
2024-01-01T09:12:11.229Z,86.19
2024-01-01T09:14:37.964Z,85.97
2024-01-01T09:17:09.327Z,85.91
2024-01-01T09:19:38.984Z,85.17
2024-01-01T09:22:05.937Z,85.70
2024-01-01T09:24:33.432Z,85.26
2024-01-01T09:27:00.863Z,85.20
2024-01-01T09:29:28.556Z,84.71
2024-01-01T09:31:55.293Z,84.55
2024-01-01T09:34:22.317Z,84.54
2024-01-01T09:36:57.454Z,85.26
2024-01-01T09:39:30.054Z,84.39
2024-01-01T09:41:57.071Z,84.45
2024-01-01T09:44:24.822Z,84.57
2024-01-01T09:46:51.584Z,84.43
2024-01-01T09:49:18.423Z,84.11
2024-01-01T09:51:46.005Z,83.90
2024-01-01T09:54:13.281Z,84.41
2024-01-01T09:56:39.991Z,84.24
2024-01-01T09:59:06.757Z,83.50
2024-01-01T10:01:34.582Z,83.81
2024-01-01T10:04:08.652Z,82.67
2024-01-01T10:06:40.116Z,82.36
2024-01-01T10:09:11.543Z,82.67
2024-01-01T10:11:45.752Z,81.79
2024-01-01T10:14:13.892Z,81.96
2024-01-01T10:16:40.935Z,81.48
2024-01-01T10:19:09.388Z,81.37
2024-01-01T10:21:38.196Z,80.91
2024-01-01T10:24:27.003Z,81.01
2024-01-01T10:27:02.146Z,80.84
2024-01-01T10:29:29.752Z,81.49
2024-01-01T10:31:57.068Z,81.19
2024-01-01T10:34:24.309Z,80.83
2024-01-01T10:36:51.536Z,81.37
2024-01-01T10:39:18.840Z,81.58
2024-01-01T10:41:48.301Z,81.46
2024-01-01T10:44:15.798Z,81.47
2024-01-01T10:46:49.314Z,81.28
2024-01-01T10:49:25.673Z,81.61
2024-01-01T10:51:58.332Z,82.20
2024-01-01T10:54:51.751Z,82.07
2024-01-01T10:57:39.604Z,81.22
2024-01-01T11:00:12.309Z,80.98
2024-01-01T11:02:39.989Z,80.24
2024-01-01T11:05:11.441Z,80.40
2024-01-01T11:07:57.144Z,79.77
2024-01-01T11:10:45.836Z,80.10
2024-01-01T11:13:31.437Z,81.09
2024-01-01T11:16:05.062Z,81.70
2024-01-01T11:18:33.663Z,81.18
2024-01-01T11:21:02.642Z,82.14
2024-01-01T11:23:42.125Z,81.22
2024-01-01T11:26:24.366Z,80.73
2024-01-01T11:28:55.761Z,80.87
2024-01-01T11:31:23.406Z,81.33
2024-01-01T11:34:07.171Z,81.12
2024-01-01T11:36:42.999Z,80.92
2024-01-01T11:39:10.208Z,81.13
2024-01-01T11:41:37.097Z,80.69
2024-01-01T11:44:14.164Z,80.41
2024-01-01T11:46:41.544Z,80.51
2024-01-01T11:49:11.391Z,79.85
2024-01-01T11:51:59.245Z,80.14
2024-01-01T11:54:28.475Z,80.09
2024-01-01T11:56:58.752Z,80.69
2024-01-01T11:59:26.576Z,79.79
2024-01-01T12:01:53.524Z,80.35
2024-01-01T12:04:21.081Z,80.46
2024-01-01T12:06:52.875Z,80.32
2024-01-01T12:09:22.552Z,80.35
2024-01-01T12:11:50.099Z,79.77
2024-01-01T12:14:24.941Z,78.91
2024-01-01T12:16:51.814Z,78.35
2024-01-01T12:19:24.210Z,76.86
2024-01-01T12:21:53.138Z,77.35
2024-01-01T12:24:20.569Z,78.05
2024-01-01T12:26:49.708Z,78.23
2024-01-01T12:29:18.765Z,78.58
2024-01-01T12:31:50.744Z,79.11
2024-01-01T12:34:19.265Z,80.66
2024-01-01T12:36:48.397Z,81.56
2024-01-01T12:39:19.028Z,82.27
2024-01-01T12:41:46.194Z,82.81
2024-01-01T12:44:13.057Z,82.25
2024-01-01T12:46:41.610Z,82.21
2024-01-01T12:49:08.548Z,82.87
2024-01-01T12:51:36.792Z,83.28
2024-01-01T12:54:05.166Z,83.35
2024-01-01T12:56:33.071Z,83.24
2024-01-01T12:58:59.805Z,83.20
2024-01-01T13:01:26.544Z,82.20
2024-01-01T13:03:53.587Z,82.32
2024-01-01T13:06:21.017Z,82.86
2024-01-01T13:08:49.147Z,82.18
2024-01-01T13:11:16.642Z,81.42
2024-01-01T13:13:43.810Z,80.87
2024-01-01T13:16:10.686Z,81.04
2024-01-01T13:18:37.674Z,80.95
2024-01-01T13:21:04.796Z,80.92
2024-01-01T13:23:31.850Z,81.21
2024-01-01T13:25:59.398Z,81.33
2024-01-01T13:28:26.415Z,80.97
2024-01-01T13:30:53.506Z,79.85
2024-01-01T13:33:20.937Z,80.49
2024-01-01T13:35:48.060Z,79.57
2024-01-01T13:38:14.905Z,79.91
2024-01-01T13:40:41.917Z,80.33
2024-01-01T13:43:12.065Z,79.99
2024-01-01T13:45:39.889Z,80.05
2024-01-01T13:48:10.330Z,79.82
2024-01-01T13:50:37.864Z,79.16
2024-01-01T13:53:06.144Z,79.40
2024-01-01T13:55:37.174Z,78.70
2024-01-01T13:58:06.163Z,78.70
2024-01-01T14:00:33.527Z,79.10
2024-01-01T14:03:00.401Z,78.81
2024-01-01T14:05:28.619Z,78.53
2024-01-01T14:07:55.731Z,78.29
2024-01-01T14:10:22.499Z,77.75
2024-01-01T14:12:49.816Z,77.62
2024-01-01T14:15:22.343Z,77.87
2024-01-01T14:17:53.814Z,77.64
2024-01-01T14:20:23.773Z,77.68
2024-01-01T14:22:50.695Z,77.60
2024-01-01T14:25:18.069Z,78.01
2024-01-01T14:27:44.815Z,77.77
2024-01-01T14:30:12.132Z,77.44
2024-01-01T14:32:39.376Z,77.38
2024-01-01T14:35:06.653Z,77.77
2024-01-01T14:37:33.422Z,78.17
2024-01-01T14:40:00.250Z,78.15
2024-01-01T14:42:26.998Z,76.85
2024-01-01T14:44:53.689Z,77.72
2024-01-01T14:47:20.484Z,77.85
2024-01-01T14:49:48.024Z,78.21
2024-01-01T14:52:18.473Z,78.10
2024-01-01T14:54:45.277Z,77.36
2024-01-01T14:57:12.878Z,77.30
2024-01-01T14:59:39.575Z,77.79
2024-01-01T15:02:07.016Z,78.59
2024-01-01T15:04:34.795Z,78.66
2024-01-01T15:07:05.450Z,78.13
2024-01-01T15:09:37.443Z,78.48
2024-01-01T15:12:07.298Z,77.37
2024-01-01T15:14:34.958Z,77.94
2024-01-01T15:17:02.486Z,78.20
2024-01-01T15:19:29.388Z,78.32
2024-01-01T15:21:56.134Z,78.57
2024-01-01T15:24:23.002Z,79.02
2024-01-01T15:26:50.664Z,79.58
2024-01-01T15:29:18.470Z,79.79
2024-01-01T15:31:45.329Z,80.43
2024-01-01T15:34:12.882Z,81.25
2024-01-01T15:36:42.570Z,81.56
2024-01-01T15:39:14.457Z,81.64
2024-01-01T15:41:42.009Z,81.75
2024-01-01T15:44:09.486Z,80.93
2024-01-01T15:46:36.931Z,80.56
2024-01-01T15:49:04.718Z,80.72
2024-01-01T15:51:39.075Z,80.99
2024-01-01T15:54:07.404Z,79.91
2024-01-01T15:56:34.524Z,80.33
2024-01-01T15:59:01.280Z,80.53
2024-01-01T16:01:28.090Z,79.62
2024-01-01T16:03:56.247Z,79.88
2024-01-01T16:06:23.612Z,79.73
2024-01-01T16:08:50.586Z,80.57
2024-01-01T16:11:22.228Z,80.67
2024-01-01T16:13:50.074Z,80.14
2024-01-01T16:16:20.057Z,80.21
2024-01-01T16:18:47.508Z,80.64
2024-01-01T16:21:14.964Z,81.49
2024-01-01T16:23:42.029Z,81.39
2024-01-01T16:26:10.406Z,81.30
2024-01-01T16:28:37.363Z,81.45
2024-01-01T16:31:05.352Z,81.95
2024-01-01T16:33:32.597Z,82.06
2024-01-01T16:36:02.822Z,82.11
2024-01-01T16:38:29.727Z,82.24
2024-01-01T16:40:56.622Z,82.70
2024-01-01T16:43:23.465Z,82.81
2024-01-01T16:45:50.356Z,83.10
2024-01-01T16:48:17.170Z,82.96
2024-01-01T16:50:48.847Z,84.02
2024-01-01T16:53:15.788Z,84.51
2024-01-01T16:55:43.882Z,84.55
2024-01-01T16:58:10.605Z,84.76
2024-01-01T17:00:37.336Z,85.25
2024-01-01T17:03:05.444Z,85.41
2024-01-01T17:05:32.667Z,85.44
2024-01-01T17:07:59.556Z,85.59
2024-01-01T17:10:26.310Z,85.63
2024-01-01T17:12:53.440Z,85.76
2024-01-01T17:15:20.635Z,85.82
2024-01-01T17:17:48.042Z,86.00
2024-01-01T17:20:14.964Z,86.55
2024-01-01T17:22:41.791Z,87.15
2024-01-01T17:25:09.146Z,87.27
2024-01-01T17:27:36.513Z,87.98
2024-01-01T17:30:04.442Z,87.78
2024-01-01T17:32:31.843Z,88.40
2024-01-01T17:34:59.484Z,88.50
2024-01-01T17:37:26.991Z,88.89
2024-01-01T17:39:53.716Z,89.01
2024-01-01T17:42:20.433Z,89.88
2024-01-01T17:44:47.602Z,90.52
2024-01-01T17:47:14.949Z,91.23
2024-01-01T17:49:51.467Z,91.37
2024-01-01T17:52:18.771Z,92.13
2024-01-01T17:54:45.793Z,92.08
2024-01-01T17:57:13.277Z,92.41
2024-01-01T17:59:40.058Z,93.08
2024-01-01T18:02:08.280Z,92.95
2024-01-01T18:04:35.019Z,93.43
2024-01-01T18:07:01.817Z,94.10
2024-01-01T18:09:28.531Z,94.56
2024-01-01T18:11:55.232Z,94.57
2024-01-01T18:14:22.051Z,95.50
2024-01-01T18:16:48.843Z,95.57
2024-01-01T18:19:15.724Z,95.50
2024-01-01T18:21:43.387Z,95.68
2024-01-01T18:24:11.382Z,95.34
2024-01-01T18:26:38.173Z,95.48
2024-01-01T18:29:04.910Z,96.17
2024-01-01T18:31:31.747Z,96.49
2024-01-01T18:33:58.574Z,96.43
2024-01-01T18:36:26.129Z,96.51
2024-01-01T18:38:52.905Z,96.43
2024-01-01T18:41:20.758Z,96.17
2024-01-01T18:43:48.062Z,96.46
2024-01-01T18:46:15.506Z,96.74
2024-01-01T18:48:43.300Z,96.82
2024-01-01T18:51:10.433Z,96.99
2024-01-01T18:53:40.564Z,97.57
2024-01-01T18:56:07.530Z,97.71
2024-01-01T18:58:34.877Z,97.76
2024-01-01T19:01:02.456Z,97.62
2024-01-01T19:03:29.339Z,97.58
2024-01-01T19:05:58.338Z,97.31
2024-01-01T19:08:26.729Z,97.58
2024-01-01T19:10:53.661Z,97.13
2024-01-01T19:13:20.524Z,97.02
2024-01-01T19:15:47.861Z,97.04
2024-01-01T19:18:15.382Z,96.83
2024-01-01T19:20:42.201Z,96.33
2024-01-01T19:23:09.949Z,96.51
2024-01-01T19:25:37.486Z,96.50
2024-01-01T19:28:04.475Z,96.47
2024-01-01T19:30:31.690Z,96.84
2024-01-01T19:32:58.566Z,96.72
2024-01-01T19:35:25.568Z,96.28
2024-01-01T19:37:52.438Z,96.66
2024-01-01T19:40:21.044Z,96.69
2024-01-01T19:42:48.682Z,97.05
2024-01-01T19:45:15.642Z,97.14
2024-01-01T19:47:45.234Z,97.05
2024-01-01T19:50:12.996Z,97.74
2024-01-01T19:52:40.020Z,97.65
2024-01-01T19:55:07.737Z,97.84
2024-01-01T19:57:35.714Z,98.03
2024-01-01T20:00:04.538Z,98.03
2024-01-01T20:02:32.122Z,98.10
2024-01-01T20:04:59.300Z,97.83
2024-01-01T20:07:26.072Z,98.52
2024-01-01T20:09:53.298Z,98.48
2024-01-01T20:12:20.288Z,98.31
2024-01-01T20:14:46.999Z,98.07
2024-01-01T20:17:13.765Z,97.60
2024-01-01T20:19:40.709Z,97.30
2024-01-01T20:22:07.864Z,97.18
2024-01-01T20:24:34.604Z,97.39
2024-01-01T20:27:01.303Z,97.49
2024-01-01T20:29:28.050Z,97.44
2024-01-01T20:31:54.834Z,97.40
2024-01-01T20:34:23.678Z,97.26
2024-01-01T20:36:50.511Z,97.35
2024-01-01T20:39:17.227Z,97.32
2024-01-01T20:41:45.642Z,97.46
2024-01-01T20:44:12.557Z,97.09
2024-01-01T20:46:39.394Z,97.12
2024-01-01T20:49:06.449Z,96.99
2024-01-01T20:51:33.345Z,96.56
2024-01-01T20:54:03.683Z,96.55
2024-01-01T20:56:31.548Z,96.68
2024-01-01T20:58:58.525Z,96.86
2024-01-01T21:01:25.438Z,97.30
2024-01-01T21:03:52.644Z,97.05
2024-01-01T21:06:19.823Z,96.85
2024-01-01T21:08:46.723Z,96.75
2024-01-01T21:11:13.433Z,96.60
2024-01-01T21:13:40.246Z,96.72
2024-01-01T21:16:07.367Z,96.21
2024-01-01T21:18:34.495Z,96.08
2024-01-01T21:21:01.570Z,96.30
2024-01-01T21:23:28.692Z,96.26
2024-01-01T21:25:56.695Z,96.15
2024-01-01T21:28:23.635Z,96.10
2024-01-01T21:30:50.487Z,96.15
2024-01-01T21:33:17.324Z,96.14
2024-01-01T21:35:44.188Z,95.86
2024-01-01T21:38:10.946Z,95.60
2024-01-01T21:40:37.908Z,95.00
2024-01-01T21:43:07.712Z,95.46
2024-01-01T21:45:34.920Z,94.67
2024-01-01T21:48:03.840Z,94.85
2024-01-01T21:50:33.650Z,94.32
2024-01-01T21:53:01.038Z,94.33
2024-01-01T21:55:27.799Z,93.73
2024-01-01T21:57:54.606Z,93.77
2024-01-01T22:00:21.423Z,93.33
2024-01-01T22:02:50.480Z,93.70
2024-01-01T22:05:18.599Z,93.16
2024-01-01T22:07:45.458Z,93.20
2024-01-01T22:10:12.922Z,93.66
2024-01-01T22:12:41.119Z,93.41
2024-01-01T22:15:09.338Z,93.16
2024-01-01T22:17:36.272Z,93.53
2024-01-01T22:20:03.255Z,93.74
2024-01-01T22:22:29.990Z,93.61
2024-01-01T22:24:56.694Z,93.58
2024-01-01T22:27:23.490Z,93.45
2024-01-01T22:29:50.208Z,93.70
2024-01-01T22:32:16.923Z,93.44
2024-01-01T22:34:43.666Z,93.08
2024-01-01T22:37:10.346Z,93.18
2024-01-01T22:39:37.044Z,93.27
2024-01-01T22:42:04.100Z,92.78
2024-01-01T22:44:31.009Z,92.57
2024-01-01T22:46:57.785Z,92.61
2024-01-01T22:49:24.558Z,92.60
2024-01-01T22:51:51.300Z,92.06
2024-01-01T22:54:18.120Z,92.03
2024-01-01T22:56:45.397Z,92.21
2024-01-01T22:59:12.230Z,92.03
2024-01-01T23:01:39.078Z,92.11
2024-01-01T23:04:05.823Z,91.71
2024-01-01T23:06:33.711Z,92.04
2024-01-01T23:09:00.818Z,91.25
2024-01-01T23:11:27.832Z,90.56
2024-01-01T23:13:54.791Z,90.31
2024-01-01T23:16:21.546Z,90.38
2024-01-01T23:18:48.855Z,90.44
2024-01-01T23:21:16.168Z,90.80
2024-01-01T23:23:43.735Z,90.58
2024-01-01T23:26:12.524Z,90.01
2024-01-01T23:28:41.693Z,89.84
2024-01-01T23:31:08.494Z,89.57
2024-01-01T23:33:35.441Z,89.96
2024-01-01T23:36:02.398Z,89.77
2024-01-01T23:38:29.263Z,89.77
2024-01-01T23:40:56.073Z,89.99
2024-01-01T23:43:22.817Z,89.68
2024-01-01T23:45:49.764Z,89.27
2024-01-01T23:48:16.803Z,89.47
2024-01-01T23:50:48.935Z,90.08
2024-01-01T23:53:16.165Z,90.11
2024-01-01T23:55:42.948Z,90.17
2024-01-01T23:58:09.647Z,89.98
